createdAt,value
2022-11-29T00:01:31.108Z,5.80
2022-11-29T00:03:58.185Z,5.80
2022-11-29T00:06:29.151Z,5.80
2022-11-29T00:08:56.648Z,5.90
2022-11-29T00:11:43.613Z,5.90
2022-11-29T00:14:12.470Z,5.90
2022-11-29T00:16:42.192Z,6.00
2022-11-29T00:19:13.077Z,6.00
2022-11-29T00:21:39.836Z,6.00
2022-11-29T00:24:07.300Z,6.00
2022-11-29T00:26:34.044Z,6.00
2022-11-29T00:29:00.936Z,6.00
2022-11-29T00:31:31.862Z,6.00
2022-11-29T00:34:00.165Z,6.00
2022-11-29T00:36:27.029Z,6.10
2022-11-29T00:38:53.806Z,6.10
2022-11-29T00:41:20.860Z,6.10
2022-11-29T00:43:47.799Z,6.10
2022-11-29T00:46:14.674Z,6.00
2022-11-29T00:48:41.573Z,6.00
2022-11-29T00:51:08.355Z,6.00
2022-11-29T00:53:35.320Z,6.00
2022-11-29T00:56:02.154Z,6.00
2022-11-29T00:58:29.108Z,6.00
2022-11-29T01:00:55.991Z,6.00
2022-11-29T01:03:22.930Z,6.00
2022-11-29T01:05:50.098Z,6.00
2022-11-29T01:08:17.561Z,5.90
2022-11-29T01:10:44.505Z,5.90
2022-11-29T01:13:11.336Z,5.90
2022-11-29T01:15:38.151Z,5.90
2022-11-29T01:18:05.012Z,5.90
2022-11-29T01:20:31.797Z,5.90
2022-11-29T01:22:58.762Z,6.00
2022-11-29T01:25:25.561Z,6.00
2022-11-29T01:27:52.369Z,6.00
2022-11-29T01:30:19.350Z,6.00
2022-11-29T01:32:46.203Z,6.00
2022-11-29T01:35:12.994Z,6.00
2022-11-29T01:37:39.748Z,6.00
2022-11-29T01:40:06.861Z,6.00
2022-11-29T01:42:33.636Z,6.00
2022-11-29T01:45:21.307Z,6.00
2022-11-29T01:47:48.867Z,6.00
2022-11-29T01:50:15.724Z,6.00
2022-11-29T01:52:42.826Z,5.90
2022-11-29T01:55:10.119Z,6.00
2022-11-29T01:57:38.585Z,6.10
2022-11-29T02:00:08.739Z,6.10
2022-11-29T02:02:49.486Z,6.10
2022-11-29T02:05:17.284Z,6.00
2022-11-29T02:07:45.561Z,6.10
2022-11-29T02:10:13.478Z,6.00
2022-11-29T02:12:50.692Z,6.00
2022-11-29T02:15:29.742Z,6.00
2022-11-29T02:18:14.780Z,6.00
2022-11-29T02:20:41.570Z,6.00
2022-11-29T02:23:22.539Z,6.00
2022-11-29T02:26:08.183Z,6.00
2022-11-29T02:28:34.962Z,6.00
2022-11-29T02:31:14.146Z,6.00
2022-11-29T02:33:59.726Z,6.00
2022-11-29T02:36:26.495Z,6.00
2022-11-29T02:38:56.367Z,6.10
2022-11-29T02:41:30.857Z,6.10
2022-11-29T02:44:07.104Z,6.10
2022-11-29T02:46:41.844Z,6.10
2022-11-29T02:49:17.510Z,6.10
2022-11-29T02:51:47.331Z,6.10
2022-11-29T02:54:18.531Z,6.10
2022-11-29T02:56:48.080Z,6.20
2022-11-29T02:59:33.858Z,6.20
2022-11-29T03:02:09.575Z,6.10
2022-11-29T03:04:56.699Z,6.10
2022-11-29T03:07:41.928Z,6.10
2022-11-29T03:10:08.860Z,6.10
2022-11-29T03:12:40.322Z,6.10
2022-11-29T03:15:25.272Z,6.10
2022-11-29T03:17:52.072Z,6.10
2022-11-29T03:20:21.990Z,6.10
2022-11-29T03:23:02.328Z,6.10
2022-11-29T03:25:35.416Z,6.20
2022-11-29T03:28:07.133Z,6.20
2022-11-29T03:30:36.011Z,6.20
2022-11-29T03:33:08.920Z,6.20
2022-11-29T03:35:56.983Z,6.20
2022-11-29T03:38:26.549Z,6.20
2022-11-29T03:40:56.468Z,6.20
2022-11-29T03:43:26.271Z,6.30
2022-11-29T03:45:58.938Z,6.20
2022-11-29T03:48:36.448Z,6.20
2022-11-29T03:51:03.151Z,6.20
2022-11-29T03:53:50.210Z,6.20
2022-11-29T03:56:26.158Z,6.20
2022-11-29T03:58:57.438Z,6.20
2022-11-29T04:01:35.888Z,6.20
2022-11-29T04:04:11.766Z,6.20
2022-11-29T04:06:44.490Z,6.20
2022-11-29T04:09:20.669Z,6.20
2022-11-29T04:11:58.770Z,6.20
2022-11-29T04:15:04.167Z,6.20
2022-11-29T04:17:39.856Z,6.20
2022-11-29T04:20:12.502Z,6.20
2022-11-29T04:22:57.842Z,6.20
2022-11-29T04:25:27.799Z,6.20
2022-11-29T04:28:10.183Z,6.20
2022-11-29T04:30:55.598Z,6.10
2022-11-29T04:33:37.524Z,6.30
2022-11-29T04:36:30.577Z,6.30
2022-11-29T04:38:57.317Z,6.30
2022-11-29T04:41:42.422Z,6.30
2022-11-29T04:44:15.305Z,6.30
2022-11-29T04:47:05.999Z,6.20
2022-11-29T04:49:32.778Z,6.20
2022-11-29T04:51:59.489Z,6.30
2022-11-29T04:54:26.280Z,6.40
2022-11-29T04:56:57.909Z,6.30
2022-11-29T04:59:35.920Z,6.30
2022-11-29T05:02:09.892Z,6.30
2022-11-29T05:04:36.810Z,6.30
2022-11-29T05:07:03.801Z,6.30
2022-11-29T05:09:49.458Z,6.30
2022-11-29T05:12:28.127Z,6.30
2022-11-29T05:15:14.250Z,6.30
2022-11-29T05:17:47.940Z,6.30
2022-11-29T05:20:14.762Z,6.30
2022-11-29T05:23:00.151Z,6.30
2022-11-29T05:25:29.866Z,6.30
2022-11-29T05:28:09.999Z,6.30
2022-11-29T05:30:43.281Z,6.30
2022-11-29T05:33:20.123Z,6.20
2022-11-29T05:35:53.980Z,6.20
2022-11-29T05:38:26.653Z,6.30
2022-11-29T05:40:59.290Z,6.30
2022-11-29T05:43:32.107Z,6.40
2022-11-29T05:46:04.994Z,6.30
2022-11-29T05:48:45.185Z,6.30
2022-11-29T05:51:23.090Z,6.30
2022-11-29T05:53:49.850Z,6.30
2022-11-29T05:56:35.531Z,6.30
2022-11-29T05:59:11.047Z,6.30
2022-11-29T06:01:44.263Z,6.30
2022-11-29T06:04:14.761Z,6.30
2022-11-29T06:06:49.425Z,6.30
2022-11-29T06:09:26.223Z,6.30
2022-11-29T06:11:56.652Z,6.30
2022-11-29T06:14:25.150Z,6.30
2022-11-29T06:17:01.984Z,6.30
2022-11-29T06:19:28.709Z,6.30
2022-11-29T06:22:07.211Z,6.30
2022-11-29T06:24:48.121Z,6.30
2022-11-29T06:27:34.542Z,6.30
2022-11-29T06:30:09.250Z,6.30
2022-11-29T06:32:45.267Z,6.30
2022-11-29T06:35:18.128Z,6.30
2022-11-29T06:37:52.282Z,6.30
2022-11-29T06:40:19.092Z,6.30
2022-11-29T06:42:45.983Z,6.30
2022-11-29T06:45:13.863Z,6.30
2022-11-29T06:47:45.769Z,6.30
2022-11-29T06:50:31.410Z,6.30
2022-11-29T06:53:16.744Z,6.30
2022-11-29T06:55:59.451Z,6.30
2022-11-29T06:58:36.374Z,6.30
2022-11-29T07:01:33.371Z,6.40
2022-11-29T07:04:03.058Z,6.40
2022-11-29T07:06:29.986Z,6.40
2022-11-29T07:08:59.504Z,6.40
2022-11-29T07:11:26.525Z,6.40
2022-11-29T07:13:53.600Z,6.40
2022-11-29T07:16:26.459Z,6.40
2022-11-29T07:18:59.046Z,6.40
2022-11-29T07:21:28.870Z,6.40
2022-11-29T07:23:55.773Z,6.40
2022-11-29T07:26:44.962Z,6.40
2022-11-29T07:29:28.061Z,6.40
2022-11-29T07:32:00.744Z,6.50
2022-11-29T07:34:46.406Z,6.50
2022-11-29T07:37:20.349Z,6.50
2022-11-29T07:39:59.266Z,6.50
2022-11-29T07:42:40.951Z,6.50
2022-11-29T07:45:26.339Z,6.50
2022-11-29T07:47:53.185Z,6.50
2022-11-29T07:50:20.633Z,6.60
2022-11-29T07:52:48.255Z,6.60
2022-11-29T07:55:19.501Z,6.60
2022-11-29T07:57:46.630Z,6.60
2022-11-29T08:00:14.074Z,6.60
2022-11-29T08:02:41.453Z,6.60
2022-11-29T08:05:08.751Z,6.60
2022-11-29T08:07:39.546Z,6.60
2022-11-29T08:10:10.820Z,6.60
2022-11-29T08:12:41.790Z,6.60
2022-11-29T08:15:09.180Z,6.60
2022-11-29T08:17:37.133Z,6.60
2022-11-29T08:20:04.872Z,6.70
2022-11-29T08:22:31.717Z,6.70
2022-11-29T08:24:59.928Z,6.80
2022-11-29T08:27:26.820Z,6.90
2022-11-29T08:29:53.606Z,6.90
2022-11-29T08:32:20.315Z,6.80
2022-11-29T08:34:47.286Z,6.80
2022-11-29T08:37:14.267Z,6.90
2022-11-29T08:39:41.150Z,6.90
2022-11-29T08:42:07.957Z,6.90
2022-11-29T08:44:34.816Z,6.90
2022-11-29T08:47:20.154Z,6.90
2022-11-29T08:50:02.029Z,6.90
2022-11-29T08:52:47.673Z,6.90
2022-11-29T08:55:14.625Z,7.00
2022-11-29T08:57:41.546Z,7.00
2022-11-29T09:00:09.220Z,7.00
2022-11-29T09:02:36.730Z,7.10
2022-11-29T09:05:04.201Z,7.10
2022-11-29T09:07:30.998Z,7.20
2022-11-29T09:09:57.834Z,7.20
2022-11-29T09:12:24.732Z,7.20
2022-11-29T09:14:51.509Z,7.30
2022-11-29T09:17:18.291Z,7.30
2022-11-29T09:19:45.025Z,7.30
2022-11-29T09:22:11.810Z,7.30
2022-11-29T09:24:38.559Z,7.20
2022-11-29T09:27:06.289Z,7.20
2022-11-29T09:29:33.197Z,7.20
2022-11-29T09:32:00.026Z,7.20
2022-11-29T09:34:26.867Z,7.30
2022-11-29T09:36:53.677Z,7.30
2022-11-29T09:39:20.570Z,7.30
2022-11-29T09:42:05.538Z,7.30
2022-11-29T09:44:38.955Z,7.40
2022-11-29T09:47:24.622Z,7.30
2022-11-29T09:49:56.157Z,7.30
2022-11-29T09:52:22.972Z,7.30
2022-11-29T09:54:56.694Z,7.40
2022-11-29T09:57:24.968Z,7.50
2022-11-29T09:59:54.640Z,7.50
2022-11-29T10:02:39.377Z,7.60
2022-11-29T10:05:08.901Z,7.60
2022-11-29T10:07:41.018Z,7.60
2022-11-29T10:10:20.165Z,7.50
2022-11-29T10:13:13.191Z,7.50
2022-11-29T10:15:43.358Z,7.50
2022-11-29T10:18:23.211Z,7.50
2022-11-29T10:20:52.209Z,7.50
2022-11-29T10:23:24.130Z,7.50
2022-11-29T10:25:52.742Z,7.60
2022-11-29T10:28:24.489Z,7.60
2022-11-29T10:30:53.247Z,7.70
2022-11-29T10:33:35.296Z,7.70
2022-11-29T10:36:04.504Z,7.60
2022-11-29T10:38:31.936Z,7.70
2022-11-29T10:41:08.006Z,7.60
2022-11-29T10:43:37.281Z,7.60
2022-11-29T10:46:04.876Z,7.60
2022-11-29T10:48:33.560Z,7.60
2022-11-29T10:51:01.775Z,7.70
2022-11-29T10:53:33.017Z,7.70
2022-11-29T10:56:08.490Z,7.80
2022-11-29T10:58:35.856Z,7.70
2022-11-29T11:01:07.142Z,7.80
2022-11-29T11:03:36.131Z,7.80
2022-11-29T11:06:08.349Z,7.80
2022-11-29T11:08:35.622Z,7.80
2022-11-29T11:11:04.441Z,7.90
2022-11-29T11:13:32.107Z,7.80
2022-11-29T11:16:09.858Z,7.90
2022-11-29T11:18:37.444Z,7.90
2022-11-29T11:21:07.545Z,7.90
2022-11-29T11:23:42.377Z,7.90
2022-11-29T11:26:14.554Z,8.00
2022-11-29T11:28:47.086Z,8.00
2022-11-29T11:31:14.516Z,8.00
2022-11-29T11:33:45.236Z,7.90
2022-11-29T11:36:14.040Z,7.90
2022-11-29T11:38:47.007Z,7.90
2022-11-29T11:41:19.610Z,7.90
2022-11-29T11:43:51.755Z,8.00
2022-11-29T11:46:18.814Z,8.10
2022-11-29T11:48:46.729Z,8.10
2022-11-29T11:51:22.538Z,8.20
2022-11-29T11:53:54.900Z,8.20
2022-11-29T11:56:22.678Z,8.20
2022-11-29T11:58:54.273Z,8.20
2022-11-29T12:01:27.262Z,8.20
2022-11-29T12:03:57.033Z,8.10
2022-11-29T12:06:33.045Z,8.00
2022-11-29T12:09:03.784Z,8.10
2022-11-29T12:11:34.285Z,8.00
2022-11-29T12:14:02.125Z,8.10
2022-11-29T12:16:31.796Z,8.10
2022-11-29T12:19:02.735Z,8.10
2022-11-29T12:21:37.204Z,8.10
2022-11-29T12:24:11.790Z,8.20
2022-11-29T12:29:27.620Z,8.20
2022-11-29T12:31:57.216Z,8.30
2022-11-29T12:34:26.970Z,8.40
2022-11-29T12:36:57.103Z,8.30
2022-11-29T12:39:42.951Z,8.40
2022-11-29T12:42:09.720Z,8.40
2022-11-29T12:44:39.904Z,8.40
2022-11-29T12:47:35.745Z,8.40
2022-11-29T12:50:05.067Z,8.40
2022-11-29T12:52:40.608Z,8.40
2022-11-29T12:55:30.761Z,8.60
2022-11-29T12:58:03.753Z,8.70
2022-11-29T13:00:35.875Z,8.70
2022-11-29T13:03:08.704Z,8.80
2022-11-29T13:05:50.626Z,8.90
2022-11-29T13:08:20.566Z,8.80
2022-11-29T13:10:53.118Z,8.70
2022-11-29T13:13:46.020Z,8.70
2022-11-29T13:16:32.128Z,8.80
2022-11-29T13:19:05.206Z,8.70
2022-11-29T13:21:33.651Z,8.70
2022-11-29T13:24:09.057Z,8.70
2022-11-29T13:26:37.712Z,8.70
2022-11-29T13:29:04.738Z,8.70
2022-11-29T13:31:32.436Z,8.70
2022-11-29T13:34:14.586Z,8.70
2022-11-29T13:36:52.670Z,8.60
2022-11-29T13:39:25.985Z,8.60
2022-11-29T13:42:11.679Z,8.70
2022-11-29T13:44:56.973Z,8.60
2022-11-29T13:47:23.762Z,8.60
2022-11-29T13:49:57.201Z,8.50
2022-11-29T13:52:27.261Z,8.40
2022-11-29T13:55:29.301Z,8.40
2022-11-29T13:58:19.112Z,8.30
2022-11-29T14:00:46.039Z,8.40
2022-11-29T14:03:22.004Z,8.40
2022-11-29T14:05:52.240Z,8.40
2022-11-29T14:08:42.492Z,8.40
2022-11-29T14:11:21.507Z,8.50
2022-11-29T14:13:53.517Z,8.50
2022-11-29T14:16:39.132Z,8.50
2022-11-29T14:19:08.972Z,8.40
2022-11-29T14:21:54.637Z,8.40
2022-11-29T14:24:35.293Z,8.40
2022-11-29T14:27:12.525Z,8.40
2022-11-29T14:29:53.631Z,8.30
2022-11-29T14:32:46.410Z,8.30
2022-11-29T14:35:16.879Z,8.30
2022-11-29T14:37:58.950Z,8.30
2022-11-29T14:40:51.934Z,8.30
2022-11-29T14:43:30.202Z,8.30
2022-11-29T14:46:07.977Z,8.30
2022-11-29T14:48:35.294Z,8.20
2022-11-29T14:51:09.921Z,8.20
2022-11-29T14:53:37.658Z,8.20
2022-11-29T14:56:23.640Z,8.20
2022-11-29T14:59:10.376Z,8.20
2022-11-29T15:01:41.733Z,8.30
2022-11-29T15:04:09.198Z,8.20
2022-11-29T15:06:43.292Z,8.20
2022-11-29T15:09:17.220Z,8.20
2022-11-29T15:11:47.156Z,8.20
2022-11-29T15:14:25.014Z,8.20
2022-11-29T15:17:06.877Z,8.20
2022-11-29T15:19:46.405Z,8.20
2022-11-29T15:22:19.519Z,8.10
2022-11-29T15:24:53.831Z,8.10
2022-11-29T15:27:21.328Z,8.20
2022-11-29T15:29:48.291Z,8.10
2022-11-29T15:32:19.785Z,8.10
2022-11-29T15:34:50.979Z,8.10
2022-11-29T15:37:21.993Z,8.10
2022-11-29T15:40:00.155Z,8.10
2022-11-29T15:42:31.321Z,8.10
2022-11-29T15:44:59.398Z,8.10
2022-11-29T15:47:26.688Z,8.10
2022-11-29T15:49:54.117Z,8.10
2022-11-29T15:52:24.025Z,8.10
2022-11-29T15:54:54.242Z,8.10
2022-11-29T15:57:24.901Z,8.00
2022-11-29T15:59:54.021Z,8.00
2022-11-29T16:02:31.221Z,8.00
2022-11-29T16:04:59.794Z,8.10
2022-11-29T16:07:32.152Z,8.00
2022-11-29T16:10:01.680Z,8.00
2022-11-29T16:12:28.470Z,8.00
2022-11-29T16:14:59.268Z,8.00
2022-11-29T16:17:30.773Z,8.00
2022-11-29T16:20:23.391Z,8.00
2022-11-29T16:23:04.158Z,8.10
2022-11-29T16:25:37.218Z,8.00
2022-11-29T16:28:05.986Z,8.00
2022-11-29T16:30:32.886Z,8.00
2022-11-29T16:33:00.220Z,8.00
2022-11-29T16:35:33.756Z,8.00
2022-11-29T16:38:03.365Z,8.00
2022-11-29T16:40:31.237Z,8.00
2022-11-29T16:43:03.870Z,8.10
2022-11-29T16:45:41.509Z,8.00
2022-11-29T16:48:25.500Z,8.00
2022-11-29T16:51:10.835Z,8.00
2022-11-29T16:53:38.751Z,8.00
2022-11-29T16:56:05.676Z,8.00
2022-11-29T16:58:34.656Z,8.00
2022-11-29T17:01:23.353Z,8.00
2022-11-29T17:03:50.308Z,8.00
2022-11-29T17:06:21.179Z,8.00
2022-11-29T17:08:48.744Z,8.00
2022-11-29T17:11:15.542Z,8.00
2022-11-29T17:13:42.338Z,8.00
2022-11-29T17:16:13.139Z,8.00
2022-11-29T17:18:41.356Z,8.00
2022-11-29T17:21:17.268Z,8.00
2022-11-29T17:23:44.082Z,8.00
2022-11-29T17:26:10.843Z,8.10
2022-11-29T17:28:39.594Z,8.10
2022-11-29T17:31:10.163Z,8.10
2022-11-29T17:33:36.961Z,8.20
2022-11-29T17:36:10.413Z,8.10
2022-11-29T17:38:37.226Z,8.10
2022-11-29T17:41:14.109Z,8.10
2022-11-29T17:43:41.065Z,8.10
2022-11-29T17:46:14.992Z,8.10
2022-11-29T17:48:42.732Z,8.10
2022-11-29T17:51:28.869Z,8.10
2022-11-29T17:53:56.422Z,8.10
2022-11-29T17:56:24.770Z,8.10
2022-11-29T17:58:52.454Z,8.10
2022-11-29T18:01:20.905Z,8.10
2022-11-29T18:03:48.047Z,8.10
2022-11-29T18:06:25.297Z,8.10
2022-11-29T18:08:56.113Z,8.00
2022-11-29T18:11:24.858Z,8.00
2022-11-29T18:13:55.008Z,8.00
2022-11-29T18:16:23.631Z,8.00
2022-11-29T18:18:54.390Z,8.00
2022-11-29T18:21:21.250Z,8.00
2022-11-29T18:23:48.033Z,8.00
2022-11-29T18:26:16.340Z,8.00
2022-11-29T18:28:43.889Z,8.00
2022-11-29T18:31:12.415Z,8.00
2022-11-29T18:33:40.037Z,8.00
2022-11-29T18:36:10.021Z,8.00
2022-11-29T18:38:37.258Z,8.00
2022-11-29T18:41:07.895Z,8.00
2022-11-29T18:43:34.946Z,8.00
2022-11-29T18:46:10.981Z,8.00
2022-11-29T18:48:38.178Z,7.90
2022-11-29T18:51:06.058Z,7.90
2022-11-29T18:53:36.669Z,7.90
2022-11-29T18:56:04.518Z,7.90
2022-11-29T18:58:31.801Z,8.00
2022-11-29T19:01:06.260Z,7.90
2022-11-29T19:03:34.534Z,7.90
2022-11-29T19:06:01.552Z,7.90
2022-11-29T19:08:28.338Z,7.90
2022-11-29T19:10:55.123Z,7.90
2022-11-29T19:13:21.977Z,7.90
2022-11-29T19:15:53.044Z,7.90
2022-11-29T19:18:20.041Z,7.90
2022-11-29T19:20:46.862Z,7.90
2022-11-29T19:23:13.768Z,7.90
2022-11-29T19:25:40.570Z,7.90
2022-11-29T19:28:13.723Z,7.90
2022-11-29T19:30:41.056Z,7.90
2022-11-29T19:33:07.873Z,7.90
2022-11-29T19:35:34.877Z,7.90
2022-11-29T19:38:01.645Z,7.90
2022-11-29T19:40:28.421Z,7.90
2022-11-29T19:42:55.153Z,7.90
2022-11-29T19:45:22.008Z,7.90
2022-11-29T19:47:49.465Z,7.90
2022-11-29T19:50:16.248Z,7.90
2022-11-29T19:52:43.021Z,7.90
2022-11-29T19:55:09.864Z,7.90
2022-11-29T19:57:37.135Z,7.90
2022-11-29T20:00:05.091Z,7.90
2022-11-29T20:02:38.695Z,7.90
2022-11-29T20:05:05.800Z,7.90
2022-11-29T20:07:32.619Z,7.90
2022-11-29T20:09:59.582Z,8.00
2022-11-29T20:12:27.483Z,7.90
2022-11-29T20:14:54.270Z,8.00
2022-11-29T20:17:21.025Z,8.00
2022-11-29T20:19:48.039Z,8.00
2022-11-29T20:22:15.022Z,8.00
2022-11-29T20:24:45.647Z,7.90
2022-11-29T20:27:12.603Z,7.90
2022-11-29T20:29:39.362Z,7.90
2022-11-29T20:32:06.217Z,7.90
2022-11-29T20:34:33.092Z,7.90
2022-11-29T20:37:11.923Z,7.90
2022-11-29T20:39:59.856Z,7.90
2022-11-29T20:42:27.114Z,8.00
2022-11-29T20:44:58.097Z,7.90
2022-11-29T20:47:32.623Z,7.90
2022-11-29T20:49:59.574Z,7.90
2022-11-29T20:52:26.265Z,7.90
2022-11-29T20:54:53.133Z,7.90
2022-11-29T20:57:19.946Z,7.90
2022-11-29T20:59:46.887Z,7.90
2022-11-29T21:02:13.894Z,7.90
2022-11-29T21:04:40.731Z,7.90
2022-11-29T21:07:07.481Z,7.90
2022-11-29T21:09:34.235Z,7.90
2022-11-29T21:12:01.155Z,7.90
2022-11-29T21:14:27.972Z,7.90
2022-11-29T21:16:54.882Z,7.90
2022-11-29T21:19:23.937Z,7.90
2022-11-29T21:22:09.513Z,7.90
2022-11-29T21:24:48.255Z,7.80
2022-11-29T21:27:18.321Z,7.90
2022-11-29T21:29:45.356Z,7.80
2022-11-29T21:32:22.612Z,7.90
2022-11-29T21:34:49.701Z,7.90
2022-11-29T21:37:18.262Z,7.80
2022-11-29T21:39:45.361Z,7.80
2022-11-29T21:42:12.130Z,7.80
2022-11-29T21:44:38.918Z,7.80
2022-11-29T21:47:05.751Z,7.80
2022-11-29T21:49:32.545Z,7.80
2022-11-29T21:52:01.145Z,7.80
2022-11-29T21:54:28.636Z,7.80
2022-11-29T21:56:55.971Z,7.80
2022-11-29T21:59:24.846Z,7.90
2022-11-29T22:01:52.268Z,7.80
2022-11-29T22:04:19.424Z,7.80
2022-11-29T22:06:46.981Z,7.80
2022-11-29T22:09:13.827Z,7.80
2022-11-29T22:11:40.876Z,7.80
2022-11-29T22:14:15.056Z,7.70
2022-11-29T22:16:52.039Z,7.80
2022-11-29T22:19:20.260Z,7.80
2022-11-29T22:21:48.438Z,7.70
2022-11-29T22:24:15.978Z,7.70
2022-11-29T22:26:43.751Z,7.80
2022-11-29T22:29:11.376Z,7.70
2022-11-29T22:31:38.217Z,7.70
2022-11-29T22:34:05.010Z,7.70
2022-11-29T22:36:31.935Z,7.70
2022-11-29T22:38:59.871Z,7.70
2022-11-29T22:41:26.735Z,7.70
2022-11-29T22:43:53.688Z,7.70
2022-11-29T22:46:21.685Z,7.70
2022-11-29T22:48:50.771Z,7.70
2022-11-29T22:51:19.169Z,7.70
2022-11-29T22:53:50.264Z,7.70
2022-11-29T22:56:17.435Z,7.70
2022-11-29T22:58:44.494Z,7.60
2022-11-29T23:01:12.731Z,7.60
2022-11-29T23:03:40.735Z,7.50
2022-11-29T23:06:08.744Z,7.50
2022-11-29T23:08:36.197Z,7.50
2022-11-29T23:11:04.505Z,7.50
2022-11-29T23:13:35.133Z,7.50
2022-11-29T23:16:02.601Z,7.50
2022-11-29T23:18:29.649Z,7.50
2022-11-29T23:21:02.262Z,7.50
2022-11-29T23:23:29.197Z,7.40
2022-11-29T23:25:55.914Z,7.40
2022-11-29T23:28:22.896Z,7.40
2022-11-29T23:30:49.669Z,7.40
2022-11-29T23:33:16.421Z,7.40
2022-11-29T23:35:43.201Z,7.40
2022-11-29T23:38:09.933Z,7.30
2022-11-29T23:40:36.669Z,7.40
2022-11-29T23:43:03.494Z,7.30
2022-11-29T23:45:30.277Z,7.30
2022-11-29T23:47:57.020Z,7.30
2022-11-29T23:50:24.462Z,7.30
2022-11-29T23:52:54.820Z,7.30
2022-11-29T23:55:22.765Z,7.30
2022-11-29T23:57:49.574Z,7.30
